createdAt,value
2018-11-05T00:00:21.125Z,8.40
2018-11-05T00:02:51.138Z,8.44
2018-11-05T00:05:19.737Z,8.47
2018-11-05T00:07:48.149Z,8.48
2018-11-05T00:10:16.577Z,8.51
2018-11-05T00:12:44.994Z,8.50
2018-11-05T00:15:13.429Z,8.52
2018-11-05T00:17:41.861Z,8.50
2018-11-05T00:20:11.182Z,8.49
2018-11-05T00:22:39.592Z,8.49
2018-11-05T00:25:09.499Z,8.47
2018-11-05T00:27:37.926Z,8.45
2018-11-05T00:30:07.138Z,8.45
2018-11-05T00:32:35.591Z,8.45
2018-11-05T00:35:04.053Z,8.46
2018-11-05T00:37:32.455Z,8.48
2018-11-05T00:40:00.831Z,8.47
2018-11-05T00:42:29.229Z,8.50
2018-11-05T00:44:57.694Z,8.56
2018-11-05T00:47:26.172Z,8.68
2018-11-05T00:49:54.572Z,8.74
2018-11-05T00:52:23.005Z,8.83
2018-11-05T00:54:52.449Z,8.83
2018-11-05T00:57:20.874Z,8.85
2018-11-05T00:59:49.326Z,8.93
2018-11-05T01:02:17.993Z,9.02
2018-11-05T01:04:46.363Z,9.03
2018-11-05T01:07:14.796Z,9.08
2018-11-05T01:09:43.210Z,9.13
2018-11-05T01:12:11.632Z,9.21
2018-11-05T01:14:40.064Z,9.27
2018-11-05T01:17:08.506Z,9.33
2018-11-05T01:19:36.904Z,9.40
2018-11-05T01:22:05.375Z,9.42
2018-11-05T01:24:33.796Z,9.36
2018-11-05T01:27:02.237Z,9.40
2018-11-05T01:29:30.631Z,9.44
2018-11-05T01:31:59.081Z,9.50
2018-11-05T01:34:27.501Z,9.52
2018-11-05T01:36:55.994Z,9.61
2018-11-05T01:39:24.357Z,9.64
2018-11-05T01:41:52.802Z,9.68
2018-11-05T01:44:21.222Z,9.71
2018-11-05T01:46:49.787Z,9.74
2018-11-05T01:49:18.231Z,9.73
2018-11-05T01:51:46.641Z,9.69
2018-11-05T01:54:15.101Z,9.67
2018-11-05T01:56:43.529Z,9.59
2018-11-05T01:59:11.910Z,9.61
2018-11-05T02:01:40.326Z,9.57
2018-11-05T02:04:08.713Z,9.55
2018-11-05T02:06:37.145Z,9.53
2018-11-05T02:09:07.098Z,9.56
2018-11-05T02:11:35.496Z,9.51
2018-11-05T02:14:03.973Z,9.50
2018-11-05T02:16:32.457Z,9.49
2018-11-05T02:19:00.945Z,9.46
2018-11-05T02:21:29.356Z,9.40
2018-11-05T02:23:57.749Z,9.30
2018-11-05T02:26:26.134Z,9.24
2018-11-05T02:28:54.523Z,9.15
2018-11-05T02:31:22.926Z,9.13
2018-11-05T02:33:51.341Z,9.10
2018-11-05T02:36:19.741Z,9.10
2018-11-05T02:38:48.166Z,9.11
2018-11-05T02:41:16.582Z,9.12
2018-11-05T02:43:44.966Z,9.12
2018-11-05T02:46:13.386Z,9.14
2018-11-05T02:48:42.205Z,9.16
2018-11-05T02:51:10.589Z,9.14
2018-11-05T02:53:39.017Z,9.15
2018-11-05T02:56:07.653Z,9.14
2018-11-05T02:58:36.081Z,9.18
2018-11-05T03:01:04.489Z,9.21
2018-11-05T03:03:32.929Z,9.23
2018-11-05T03:06:01.341Z,9.22
2018-11-05T03:08:29.734Z,9.23
2018-11-05T03:10:58.151Z,9.23
2018-11-05T03:13:26.564Z,9.19
2018-11-05T03:15:54.977Z,9.17
2018-11-05T03:18:23.392Z,9.23
2018-11-05T03:20:51.787Z,9.25
2018-11-05T03:23:20.195Z,9.26
2018-11-05T03:25:48.576Z,9.28
2018-11-05T03:28:16.986Z,9.24
2018-11-05T03:30:45.366Z,9.22
2018-11-05T03:33:14.146Z,9.17
2018-11-05T03:35:42.657Z,9.12
2018-11-05T03:38:11.039Z,9.11
2018-11-05T03:40:39.459Z,9.08
2018-11-05T03:43:07.873Z,9.12
2018-11-05T03:45:36.289Z,9.13
2018-11-05T03:48:04.775Z,9.10
2018-11-05T03:50:33.731Z,9.14
2018-11-05T03:53:02.391Z,9.18
2018-11-05T03:55:31.253Z,9.11
2018-11-05T03:57:59.954Z,9.07
2018-11-05T04:00:28.725Z,9.07
2018-11-05T04:02:57.394Z,8.98
2018-11-05T04:05:26.124Z,8.88
2018-11-05T04:07:54.894Z,8.72
2018-11-05T04:10:23.670Z,8.63
2018-11-05T04:12:52.437Z,8.54
2018-11-05T04:15:21.133Z,8.56
2018-11-05T04:17:49.889Z,8.54
2018-11-05T04:20:18.669Z,8.50
2018-11-05T04:22:47.189Z,8.50
2018-11-05T04:25:15.885Z,8.46
2018-11-05T04:27:44.731Z,8.43
2018-11-05T04:30:14.397Z,8.40
2018-11-05T04:32:43.113Z,8.43
2018-11-05T04:35:12.440Z,8.32
2018-11-05T04:37:40.893Z,8.38
2018-11-05T04:40:10.453Z,8.25
2018-11-05T04:42:39.131Z,8.21
2018-11-05T04:45:10.214Z,8.24
2018-11-05T04:47:38.890Z,8.25
2018-11-05T04:50:09.065Z,8.21
2018-11-05T04:52:37.877Z,8.19
2018-11-05T04:55:06.637Z,8.12
2018-11-05T04:57:35.302Z,8.02
2018-11-05T05:00:11.101Z,7.90
2018-11-05T05:02:40.722Z,7.79
2018-11-05T05:05:09.939Z,7.81
2018-11-05T05:07:38.544Z,7.81
2018-11-05T05:10:08.337Z,7.81
2018-11-05T05:12:37.114Z,7.84
2018-11-05T05:15:06.200Z,7.89
2018-11-05T05:17:34.750Z,7.97
2018-11-05T05:20:03.253Z,8.05
2018-11-05T05:22:31.882Z,8.07
2018-11-05T05:25:00.303Z,8.09
2018-11-05T05:27:45.494Z,8.15
2018-11-05T05:30:16.292Z,8.21
2018-11-05T05:32:45.709Z,8.28
2018-11-05T05:35:14.538Z,8.38
2018-11-05T05:37:43.663Z,8.46
2018-11-05T05:40:12.382Z,8.56
2018-11-05T05:42:42.939Z,8.67
2018-11-05T05:45:12.356Z,8.76
2018-11-05T05:47:41.565Z,8.87
2018-11-05T05:50:13.760Z,8.97
2018-11-05T05:52:43.551Z,9.07
2018-11-05T05:55:12.421Z,9.17
2018-11-05T05:57:41.234Z,9.25
2018-11-05T06:00:11.846Z,9.29
2018-11-05T06:02:40.734Z,9.38
2018-11-05T06:05:10.761Z,9.43
2018-11-05T06:07:39.960Z,9.50
2018-11-05T06:10:09.214Z,9.50
2018-11-05T06:12:37.920Z,9.55
2018-11-05T06:15:08.583Z,9.56
2018-11-05T06:17:37.242Z,9.63
2018-11-05T06:20:07.696Z,9.61
2018-11-05T06:22:36.721Z,9.56
2018-11-05T06:25:06.474Z,9.57
2018-11-05T06:28:45.945Z,9.57
2018-11-05T06:31:15.612Z,9.58
2018-11-05T06:33:44.315Z,9.61
2018-11-05T06:36:12.919Z,9.63
2018-11-05T06:38:41.604Z,9.57
2018-11-05T06:41:10.075Z,9.57
2018-11-05T06:43:51.103Z,9.56
2018-11-05T06:46:19.848Z,9.54
2018-11-05T06:48:48.610Z,9.44
2018-11-05T06:51:17.206Z,9.46
2018-11-05T06:53:45.788Z,9.48
2018-11-05T06:56:14.453Z,9.49
2018-11-05T06:58:43.303Z,9.51
2018-11-05T07:01:12.307Z,9.57
2018-11-05T07:03:41.379Z,9.66
2018-11-05T07:06:10.238Z,9.75
2018-11-05T07:08:38.811Z,9.79
2018-11-05T07:11:07.777Z,9.86
2018-11-05T07:13:36.572Z,9.93
2018-11-05T07:16:05.385Z,10.01
2018-11-05T07:18:34.382Z,10.10
2018-11-05T07:21:03.214Z,10.17
2018-11-05T07:23:32.309Z,10.29
2018-11-05T07:26:01.667Z,10.35
2018-11-05T07:28:30.369Z,10.34
2018-11-05T07:30:59.349Z,10.41
2018-11-05T07:33:28.176Z,10.47
2018-11-05T07:35:56.841Z,10.52
2018-11-05T07:38:25.558Z,10.54
2018-11-05T07:40:54.362Z,10.50
2018-11-05T07:43:23.110Z,10.57
2018-11-05T07:45:52.022Z,10.62
2018-11-05T07:48:20.863Z,10.57
2018-11-05T07:50:49.885Z,10.67
2018-11-05T07:53:18.622Z,10.67
2018-11-05T07:55:47.377Z,10.69
2018-11-05T07:58:16.278Z,10.58
2018-11-05T08:00:54.628Z,10.57
2018-11-05T08:03:23.222Z,10.53
2018-11-05T08:05:51.992Z,10.54
2018-11-05T08:08:20.625Z,10.52
2018-11-05T08:10:49.434Z,10.50
2018-11-05T08:13:18.194Z,10.64
2018-11-05T08:15:46.920Z,10.62
2018-11-05T08:18:15.778Z,10.71
2018-11-05T08:20:44.483Z,10.63
2018-11-05T08:23:13.271Z,10.67
2018-11-05T08:25:41.721Z,10.63
2018-11-05T08:28:10.136Z,10.71
2018-11-05T08:30:39.102Z,10.81
2018-11-05T08:33:07.682Z,10.90
2018-11-05T08:35:36.289Z,10.99
2018-11-05T08:38:04.757Z,11.09
2018-11-05T08:40:33.278Z,11.12
2018-11-05T08:43:01.703Z,11.21
2018-11-05T08:45:30.839Z,11.19
2018-11-05T08:47:59.732Z,11.32
2018-11-05T08:50:28.469Z,11.38
2018-11-05T08:52:57.065Z,11.49
2018-11-05T08:55:26.809Z,11.51
2018-11-05T08:57:55.438Z,11.53
2018-11-05T09:00:29.525Z,11.86
2018-11-05T09:02:58.274Z,11.75
2018-11-05T09:05:26.956Z,11.89
2018-11-05T09:07:56.274Z,11.83
2018-11-05T09:10:25.261Z,12.00
2018-11-05T09:12:53.826Z,11.93
2018-11-05T09:15:23.049Z,12.09
2018-11-05T09:17:52.005Z,11.92
2018-11-05T09:20:21.016Z,11.98
2018-11-05T09:22:50.591Z,12.12
2018-11-05T09:25:19.137Z,12.20
2018-11-05T09:27:48.043Z,12.39
2018-11-05T09:30:19.950Z,12.31
2018-11-05T09:32:48.659Z,12.39
2018-11-05T09:35:17.392Z,12.55
2018-11-05T09:37:46.134Z,12.50
2018-11-05T09:40:19.764Z,12.71
2018-11-05T09:42:48.476Z,12.76
2018-11-05T09:45:20.194Z,12.53
2018-11-05T09:47:48.601Z,12.74
2018-11-05T09:50:17.884Z,12.66
2018-11-05T09:52:47.256Z,12.83
2018-11-05T09:55:16.198Z,12.87
2018-11-05T09:57:44.661Z,12.97
2018-11-05T10:00:16.096Z,12.78
2018-11-05T10:02:50.010Z,12.91
2018-11-05T10:05:18.429Z,12.90
2018-11-05T10:07:46.921Z,12.65
2018-11-05T10:10:16.101Z,12.51
2018-11-05T10:12:44.821Z,12.82
2018-11-05T10:15:14.273Z,12.98
2018-11-05T10:17:42.742Z,13.03
2018-11-05T10:20:17.808Z,13.04
2018-11-05T10:22:46.681Z,13.48
2018-11-05T10:25:15.663Z,13.52
2018-11-05T10:27:44.162Z,13.35
2018-11-05T10:30:15.850Z,13.17
2018-11-05T10:32:44.578Z,13.23
2018-11-05T10:35:13.838Z,13.58
2018-11-05T10:37:42.521Z,13.56
2018-11-05T10:40:14.420Z,13.71
2018-11-05T10:42:43.877Z,13.50
2018-11-05T10:45:13.893Z,13.73
2018-11-05T10:47:42.687Z,13.40
2018-11-05T10:50:12.593Z,13.33
2018-11-05T10:52:41.040Z,13.61
2018-11-05T10:55:09.868Z,13.78
2018-11-05T10:57:57.890Z,13.67
2018-11-05T11:00:31.675Z,13.42
2018-11-05T11:03:05.557Z,13.33
2018-11-05T11:05:34.110Z,13.47
2018-11-05T11:08:03.179Z,13.20
2018-11-05T11:10:32.639Z,13.14
2018-11-05T11:13:01.113Z,13.06
2018-11-05T11:15:29.563Z,13.16
2018-11-05T11:17:58.791Z,13.31
2018-11-05T11:20:27.228Z,13.44
2018-11-05T11:22:55.883Z,13.63
2018-11-05T11:25:24.508Z,13.93
2018-11-05T11:27:53.243Z,14.26
2018-11-05T11:30:21.874Z,14.42
2018-11-05T11:32:51.430Z,14.51
2018-11-05T11:35:20.081Z,14.64
2018-11-05T11:37:48.720Z,14.33
2018-11-05T11:40:18.550Z,14.11
2018-11-05T11:42:47.751Z,13.68
2018-11-05T11:45:17.063Z,13.67
2018-11-05T11:47:45.581Z,13.68
2018-11-05T11:50:15.322Z,13.67
2018-11-05T11:52:47.703Z,13.62
2018-11-05T11:55:17.426Z,13.65
2018-11-05T11:57:46.171Z,13.72
2018-11-05T12:00:16.799Z,13.87
2018-11-05T12:02:46.367Z,14.02
2018-11-05T12:05:14.955Z,13.94
2018-11-05T12:07:43.536Z,14.00
2018-11-05T12:10:19.869Z,14.19
2018-11-05T12:12:48.569Z,14.29
2018-11-05T12:15:18.127Z,13.95
2018-11-05T12:17:47.580Z,13.80
2018-11-05T12:20:19.005Z,13.78
2018-11-05T12:22:48.313Z,13.61
2018-11-05T12:25:17.023Z,13.47
2018-11-05T12:27:45.625Z,13.51
2018-11-05T12:30:18.704Z,13.66
2018-11-05T12:32:48.255Z,13.51
2018-11-05T12:35:17.012Z,13.72
2018-11-05T12:37:49.821Z,13.98
2018-11-05T12:40:19.420Z,14.38
2018-11-05T12:42:49.004Z,14.59
2018-11-05T12:45:17.702Z,14.69
2018-11-05T12:47:46.267Z,14.38
2018-11-05T12:50:17.891Z,14.62
2018-11-05T12:52:47.347Z,14.70
2018-11-05T12:55:16.058Z,14.65
2018-11-05T12:57:44.864Z,14.38
2018-11-05T13:00:17.760Z,14.64
2018-11-05T13:02:50.488Z,14.79
2018-11-05T13:05:19.233Z,14.80
2018-11-05T13:07:51.738Z,14.74
2018-11-05T13:10:20.665Z,14.53
2018-11-05T13:12:49.339Z,14.42
2018-11-05T13:15:18.020Z,14.67
2018-11-05T13:17:46.523Z,14.45
2018-11-05T13:20:16.393Z,14.60
2018-11-05T13:22:44.999Z,14.85
2018-11-05T13:25:13.458Z,14.89
2018-11-05T13:27:44.085Z,14.83
2018-11-05T13:30:13.421Z,15.28
2018-11-05T13:32:42.803Z,15.36
2018-11-05T13:35:12.789Z,15.35
2018-11-05T13:37:41.851Z,15.49
2018-11-05T13:40:12.277Z,15.77
2018-11-05T13:42:40.803Z,15.58
2018-11-05T13:45:10.885Z,15.60
2018-11-05T13:47:40.091Z,16.01
2018-11-05T13:50:08.652Z,15.93
2018-11-05T13:52:37.168Z,15.34
2018-11-05T13:55:06.539Z,15.56
2018-11-05T13:57:35.085Z,15.25
2018-11-05T14:00:03.938Z,14.98
2018-11-05T14:02:32.671Z,14.97
2018-11-05T14:05:01.510Z,14.81
2018-11-05T14:07:30.345Z,14.40
2018-11-05T14:09:59.068Z,14.22
2018-11-05T14:12:27.708Z,14.31
2018-11-05T14:14:56.298Z,14.22
2018-11-05T14:17:24.901Z,14.19
2018-11-05T14:19:53.345Z,14.15
2018-11-05T14:22:21.775Z,14.08
2018-11-05T14:24:50.246Z,13.87
2018-11-05T14:27:18.796Z,13.83
2018-11-05T14:29:47.688Z,13.88
2018-11-05T14:32:15.785Z,13.81
2018-11-05T14:34:44.129Z,13.68
2018-11-05T14:37:12.574Z,13.54
2018-11-05T14:39:41.083Z,13.61
2018-11-05T14:42:09.572Z,13.60
2018-11-05T14:44:38.082Z,13.46
2018-11-05T14:47:06.603Z,13.26
2018-11-05T14:49:35.382Z,13.13
2018-11-05T14:52:04.171Z,13.16
2018-11-05T14:54:32.631Z,12.92
2018-11-05T14:57:10.098Z,12.98
2018-11-05T14:59:38.946Z,13.00
2018-11-05T15:02:12.623Z,12.97
2018-11-05T15:04:41.450Z,12.89
2018-11-05T15:07:10.100Z,12.78
2018-11-05T15:09:38.565Z,12.69
2018-11-05T15:12:06.975Z,12.85
2018-11-05T15:14:37.737Z,12.79
2018-11-05T15:17:07.300Z,12.87
2018-11-05T15:19:36.365Z,12.91
2018-11-05T15:22:04.605Z,12.99
2018-11-05T15:24:33.014Z,12.76
2018-11-05T15:27:01.496Z,12.74
2018-11-05T15:29:30.388Z,12.65
2018-11-05T15:31:59.039Z,12.37
2018-11-05T15:34:27.535Z,12.28
2018-11-05T15:36:56.002Z,12.24
2018-11-05T15:39:24.452Z,12.02
2018-11-05T15:41:53.946Z,11.80
2018-11-05T15:44:34.067Z,11.73
2018-11-05T15:47:02.489Z,11.59
2018-11-05T15:49:30.942Z,11.47
2018-11-05T15:51:59.668Z,11.44
2018-11-05T15:54:28.189Z,11.41
2018-11-05T15:56:57.932Z,11.32
2018-11-05T15:59:26.388Z,11.22
2018-11-05T16:01:54.813Z,11.15
2018-11-05T16:07:19.782Z,11.00
2018-11-05T16:09:48.686Z,10.96
2018-11-05T16:12:17.923Z,10.89
2018-11-05T16:14:46.686Z,10.83
2018-11-05T16:17:15.257Z,10.80
2018-11-05T16:19:43.932Z,10.72
2018-11-05T16:22:12.561Z,10.69
2018-11-05T16:24:41.137Z,10.62
2018-11-05T16:27:09.774Z,10.64
2018-11-05T16:29:56.157Z,10.58
2018-11-05T16:32:24.797Z,10.54
2018-11-05T16:34:53.462Z,10.44
2018-11-05T16:37:21.856Z,10.39
2018-11-05T16:39:50.675Z,10.35
2018-11-05T16:42:19.145Z,10.41
2018-11-05T16:44:47.765Z,10.24
2018-11-05T16:47:16.212Z,10.20
2018-11-05T16:49:44.647Z,9.99
2018-11-05T16:52:13.082Z,9.87
2018-11-05T16:54:41.598Z,9.83
2018-11-05T16:57:10.121Z,9.81
2018-11-05T16:59:39.238Z,9.71
2018-11-05T17:02:13.703Z,9.79
2018-11-05T17:04:42.379Z,9.80
2018-11-05T17:07:10.853Z,9.77
2018-11-05T17:09:40.462Z,9.84
2018-11-05T17:12:08.958Z,9.82
2018-11-05T17:14:37.559Z,9.81
2018-11-05T17:17:06.125Z,9.79
2018-11-05T17:19:34.642Z,9.77
2018-11-05T17:22:03.145Z,9.74
2018-11-05T17:24:31.626Z,9.69
2018-11-05T17:27:00.108Z,9.69
2018-11-05T17:29:28.618Z,9.76
2018-11-05T17:31:57.286Z,9.83
2018-11-05T17:49:31.698Z,9.81
2018-11-05T18:52:28.457Z,9.84
2018-11-05T19:01:20.485Z,9.69
2018-11-05T19:03:49.838Z,9.58
2018-11-05T19:06:18.796Z,9.58
2018-11-05T19:08:48.078Z,9.60
2018-11-05T19:11:17.240Z,9.42
2018-11-05T19:13:46.166Z,9.26
2018-11-05T19:16:15.404Z,9.25
2018-11-05T19:18:44.330Z,9.24
2018-11-05T19:21:13.287Z,9.22
2018-11-05T19:23:42.749Z,9.21
2018-11-05T19:26:11.534Z,9.23
2018-11-05T19:28:40.535Z,9.24
2018-11-05T19:31:09.292Z,9.24
2018-11-05T19:33:37.982Z,9.23
2018-11-05T19:36:07.545Z,9.23
2018-11-05T19:38:36.276Z,9.19
2018-11-05T19:41:05.160Z,9.06
2018-11-05T19:43:34.022Z,9.02
2018-11-05T19:46:02.825Z,8.98
2018-11-05T19:48:31.652Z,8.95
2018-11-05T19:51:00.752Z,8.89
2018-11-05T19:53:29.707Z,8.81
2018-11-05T19:55:58.624Z,8.73
2018-11-05T19:58:27.313Z,8.73
2018-11-05T20:00:56.347Z,8.72
2018-11-05T20:03:25.200Z,8.65
2018-11-05T20:05:54.044Z,8.59
2018-11-05T20:08:22.767Z,8.54
2018-11-05T20:10:57.081Z,8.47
2018-11-05T20:13:41.226Z,8.47
2018-11-05T20:16:12.108Z,8.54
2018-11-05T20:18:53.628Z,8.53
2018-11-05T20:21:24.495Z,8.58
2018-11-05T20:23:54.829Z,8.58
2018-11-05T20:26:24.732Z,8.54
2018-11-05T20:28:56.127Z,8.53
2018-11-05T20:31:25.556Z,8.56
2018-11-05T20:33:54.773Z,8.55
2018-11-05T20:36:23.565Z,8.53
2018-11-05T20:38:52.580Z,8.56
2018-11-05T20:41:21.946Z,8.51
2018-11-05T20:43:51.357Z,8.49
2018-11-05T20:46:21.168Z,8.46
2018-11-05T20:48:50.055Z,8.40
2018-11-05T20:51:19.245Z,8.44
2018-11-05T20:53:50.278Z,8.46
2018-11-05T20:56:20.459Z,8.44
2018-11-05T20:58:49.592Z,8.33
2018-11-05T21:01:18.534Z,8.23
2018-11-05T21:03:47.433Z,8.16
2018-11-05T21:06:16.360Z,8.05
2018-11-05T21:08:45.410Z,7.99
2018-11-05T21:11:14.270Z,7.97
2018-11-05T21:13:43.073Z,7.90
2018-11-05T21:16:12.075Z,7.88
2018-11-05T21:18:40.926Z,7.93
2018-11-05T21:21:09.724Z,7.96
2018-11-05T21:23:39.368Z,8.04
2018-11-05T21:26:08.147Z,8.10
2018-11-05T21:28:37.090Z,8.16
2018-11-05T21:31:05.988Z,8.17
2018-11-05T21:33:35.456Z,8.21
2018-11-05T21:36:09.138Z,8.33
2018-11-05T21:38:39.727Z,8.24
2018-11-05T21:41:08.832Z,8.16
2018-11-05T21:43:37.695Z,8.11
2018-11-05T21:46:09.163Z,8.07
2018-11-05T21:48:38.860Z,8.05
2018-11-05T21:51:08.178Z,8.03
2018-11-05T21:53:37.057Z,7.99
2018-11-05T21:56:06.239Z,7.98
2018-11-05T21:58:35.221Z,7.83
2018-11-05T22:01:06.268Z,7.74
2018-11-05T22:03:35.530Z,7.66
2018-11-05T22:09:18.841Z,7.53
2018-11-05T22:11:47.563Z,7.52
2018-11-05T22:14:16.194Z,7.47
2018-11-05T22:16:44.835Z,7.44
2018-11-05T22:19:13.512Z,7.36
2018-11-05T22:21:42.023Z,7.34
2018-11-05T22:24:15.796Z,7.33
2018-11-05T22:26:44.303Z,7.37
2018-11-05T22:29:12.864Z,7.60
2018-11-05T22:31:41.470Z,7.69
2018-11-05T22:34:10.259Z,7.60
2018-11-05T22:36:39.065Z,7.51
2018-11-05T22:39:09.398Z,7.41
2018-11-05T22:41:37.950Z,7.31
2018-11-05T22:44:06.702Z,7.20
2018-11-05T22:46:35.251Z,7.17
2018-11-05T22:49:03.768Z,7.21
2018-11-05T22:51:32.929Z,7.18
2018-11-05T22:54:02.956Z,7.19
2018-11-05T22:56:31.617Z,7.18
2018-11-05T22:59:00.753Z,7.27
2018-11-05T23:01:34.595Z,7.35
2018-11-05T23:04:03.772Z,7.34
2018-11-05T23:06:33.289Z,7.36
2018-11-05T23:09:02.032Z,7.41
2018-11-05T23:11:30.722Z,7.48
2018-11-05T23:13:59.293Z,7.48
2018-11-05T23:16:28.453Z,7.50
2018-11-05T23:18:57.004Z,7.54
2018-11-05T23:21:26.133Z,7.62
2018-11-05T23:23:54.714Z,7.60
2018-11-05T23:26:23.309Z,7.55
2018-11-05T23:28:52.548Z,7.55
2018-11-05T23:31:21.236Z,7.50
2018-11-05T23:33:49.818Z,7.49
2018-11-05T23:39:16.102Z,7.41
2018-11-05T23:41:44.828Z,7.31
2018-11-05T23:44:13.664Z,7.18
2018-11-05T23:46:42.349Z,7.10
2018-11-05T23:49:11.819Z,6.96
2018-11-05T23:51:58.703Z,6.87
2018-11-05T23:54:27.400Z,6.74
2018-11-05T23:56:56.001Z,6.71
2018-11-05T23:59:24.721Z,6.76
